createdAt,value
2019-03-06T00:00:42.792Z,7.00
2019-03-06T00:01:42.781Z,5.19
2019-03-06T00:02:42.775Z,6.00
2019-03-06T00:03:42.782Z,4.90
2019-03-06T00:04:42.747Z,4.40
2019-03-06T00:05:42.733Z,5.30
2019-03-06T00:06:42.722Z,6.00
2019-03-06T00:07:42.711Z,6.69
2019-03-06T00:08:42.700Z,6.59
2019-03-06T00:09:42.690Z,5.09
2019-03-06T00:10:42.682Z,7.00
2019-03-06T00:11:42.665Z,4.90
2019-03-06T00:12:42.654Z,5.30
2019-03-06T00:13:42.642Z,5.69
2019-03-06T00:14:42.632Z,6.19
2019-03-06T00:15:42.619Z,4.90
2019-03-06T00:16:42.607Z,6.80
2019-03-06T00:17:42.596Z,8.10
2019-03-06T00:18:42.591Z,5.50
2019-03-06T00:19:42.574Z,4.69
2019-03-06T00:20:42.574Z,4.80
2019-03-06T00:21:42.571Z,5.80
2019-03-06T00:22:42.576Z,6.19
2019-03-06T00:23:42.578Z,6.40
2019-03-06T00:24:42.527Z,4.19
2019-03-06T00:25:42.520Z,5.59
2019-03-06T00:26:42.522Z,5.30
2019-03-06T00:27:42.529Z,5.19
2019-03-06T00:28:42.469Z,6.59
2019-03-06T00:29:42.466Z,5.90
2019-03-06T00:30:42.450Z,6.40
2019-03-06T00:31:42.435Z,8.30
2019-03-06T00:32:42.424Z,5.50
2019-03-06T00:33:42.414Z,6.19
2019-03-06T00:34:42.408Z,5.90
2019-03-06T00:35:42.388Z,6.50
2019-03-06T00:36:42.378Z,7.19
2019-03-06T00:37:42.374Z,4.69
2019-03-06T00:38:42.356Z,5.50
2019-03-06T00:39:42.342Z,7.69
2019-03-06T00:40:42.335Z,6.19
2019-03-06T00:41:42.321Z,5.69
2019-03-06T00:42:42.311Z,5.00
2019-03-06T00:43:42.302Z,4.90
2019-03-06T00:44:42.292Z,5.69
2019-03-06T00:45:42.272Z,6.19
2019-03-06T00:46:42.263Z,5.09
2019-03-06T00:47:42.252Z,4.50
2019-03-06T00:48:42.238Z,8.50
2019-03-06T00:49:42.233Z,6.50
2019-03-06T00:50:42.217Z,6.19
2019-03-06T00:51:42.211Z,4.90
2019-03-06T00:52:42.193Z,7.19
2019-03-06T00:53:42.180Z,6.40
2019-03-06T00:54:42.169Z,7.80
2019-03-06T00:55:42.158Z,4.50
2019-03-06T00:56:42.149Z,6.30
2019-03-06T00:57:42.141Z,4.30
2019-03-06T00:58:42.125Z,5.00
2019-03-06T00:59:42.113Z,5.50
2019-03-06T01:00:42.102Z,7.09
2019-03-06T01:01:42.093Z,7.40
2019-03-06T01:02:42.079Z,5.00
2019-03-06T01:03:42.067Z,6.80
2019-03-06T01:04:42.057Z,5.09
2019-03-06T01:05:42.043Z,4.40
2019-03-06T01:06:42.037Z,4.69
2019-03-06T01:07:42.045Z,5.90
2019-03-06T01:08:42.019Z,4.69
2019-03-06T01:09:41.999Z,4.09
2019-03-06T01:10:41.987Z,6.90
2019-03-06T01:11:41.982Z,6.59
2019-03-06T01:12:41.963Z,6.40
2019-03-06T01:13:41.953Z,5.09
2019-03-06T01:14:41.939Z,5.00
2019-03-06T01:15:41.934Z,6.69
2019-03-06T01:16:41.924Z,5.80
2019-03-06T01:17:41.908Z,5.80
2019-03-06T01:18:41.894Z,5.09
2019-03-06T01:19:41.888Z,4.40
2019-03-06T01:20:41.877Z,3.90
2019-03-06T01:21:41.861Z,5.30
2019-03-06T01:22:41.850Z,5.90
2019-03-06T01:23:41.837Z,4.30
2019-03-06T01:24:41.830Z,5.50
2019-03-06T01:25:41.819Z,4.30
2019-03-06T01:26:41.804Z,7.59
2019-03-06T01:27:41.791Z,6.40
2019-03-06T01:28:41.786Z,5.59
2019-03-06T01:29:41.772Z,7.90
2019-03-06T01:30:41.757Z,5.59
2019-03-06T01:31:41.748Z,5.90
2019-03-06T01:32:41.737Z,4.90
2019-03-06T01:33:41.722Z,5.30
2019-03-06T01:34:41.714Z,4.50
2019-03-06T01:35:41.702Z,5.59
2019-03-06T01:36:41.694Z,6.00
2019-03-06T01:37:41.676Z,6.80
2019-03-06T01:38:41.665Z,5.90
2019-03-06T01:39:41.663Z,6.59
2019-03-06T01:40:41.642Z,5.59
2019-03-06T01:41:41.638Z,4.90
2019-03-06T01:42:41.619Z,5.59
2019-03-06T01:43:41.612Z,4.80
2019-03-06T01:44:41.595Z,5.00
2019-03-06T01:45:41.583Z,5.19
2019-03-06T01:46:41.573Z,5.40
2019-03-06T01:47:41.569Z,5.09
2019-03-06T01:48:41.558Z,6.19
2019-03-06T01:49:41.539Z,7.30
2019-03-06T01:50:41.530Z,6.40
2019-03-06T01:51:41.521Z,5.59
2019-03-06T01:52:41.512Z,5.00
2019-03-06T01:53:41.493Z,7.30
2019-03-06T01:54:41.483Z,6.19
2019-03-06T01:55:41.470Z,8.39
2019-03-06T01:56:41.466Z,5.50
2019-03-06T01:57:41.446Z,7.09
2019-03-06T01:58:41.440Z,7.50
2019-03-06T01:59:41.423Z,6.19
2019-03-06T02:00:41.417Z,7.40
2019-03-06T02:01:41.401Z,6.80
2019-03-06T02:02:41.390Z,5.30
2019-03-06T02:03:41.378Z,5.80
2019-03-06T02:04:41.372Z,6.59
2019-03-06T02:05:41.352Z,5.80
2019-03-06T02:06:41.340Z,5.59
2019-03-06T02:07:41.332Z,6.40
2019-03-06T02:08:41.321Z,7.40
2019-03-06T02:09:41.309Z,6.80
2019-03-06T02:10:41.636Z,6.30
2019-03-06T02:11:41.289Z,5.30
2019-03-06T02:12:41.280Z,6.90
2019-03-06T02:13:41.262Z,6.40
2019-03-06T02:14:41.249Z,8.10
2019-03-06T02:15:41.244Z,6.40
2019-03-06T02:16:41.228Z,8.00
2019-03-06T02:17:41.215Z,7.40
2019-03-06T02:18:41.204Z,5.69
2019-03-06T02:19:41.193Z,6.50
2019-03-06T02:20:41.201Z,7.50
2019-03-06T02:21:41.183Z,8.50
2019-03-06T02:22:41.173Z,7.80
2019-03-06T02:23:41.148Z,7.30
2019-03-06T02:24:41.138Z,8.19
2019-03-06T02:25:41.122Z,6.00
2019-03-06T02:26:41.118Z,6.30
2019-03-06T02:27:41.102Z,6.00
2019-03-06T02:28:41.088Z,6.69
2019-03-06T02:29:41.085Z,6.80
2019-03-06T02:30:41.075Z,6.40
2019-03-06T02:31:41.059Z,7.90
2019-03-06T02:32:41.047Z,8.60
2019-03-06T02:33:41.035Z,8.39
2019-03-06T02:34:41.019Z,9.60
2019-03-06T02:35:41.011Z,7.40
2019-03-06T02:36:41.003Z,7.59
2019-03-06T02:37:40.991Z,8.10
2019-03-06T02:38:40.978Z,8.30
2019-03-06T02:39:40.964Z,7.30
2019-03-06T02:40:40.955Z,7.19
2019-03-06T02:41:40.947Z,8.10
2019-03-06T02:42:40.928Z,7.19
2019-03-06T02:43:40.927Z,7.90
2019-03-06T02:44:40.909Z,9.89
2019-03-06T02:45:40.893Z,6.30
2019-03-06T02:46:40.889Z,6.90
2019-03-06T02:47:40.882Z,7.50
2019-03-06T02:48:40.858Z,7.59
2019-03-06T02:49:40.850Z,7.50
2019-03-06T02:50:40.842Z,7.90
2019-03-06T02:51:40.835Z,7.50
2019-03-06T02:52:40.814Z,9.19
2019-03-06T02:53:40.802Z,8.00
2019-03-06T02:54:40.790Z,7.69
2019-03-06T02:55:40.780Z,8.39
2019-03-06T02:56:40.769Z,6.90
2019-03-06T02:57:40.771Z,6.90
2019-03-06T02:58:40.751Z,8.00
2019-03-06T02:59:40.735Z,8.89
2019-03-06T03:00:40.722Z,6.90
2019-03-06T03:01:40.710Z,7.40
2019-03-06T03:02:40.698Z,7.19
2019-03-06T03:03:40.689Z,7.30
2019-03-06T03:04:40.675Z,11.50
2019-03-06T03:05:40.663Z,8.60
2019-03-06T03:06:40.656Z,8.60
2019-03-06T03:07:40.642Z,6.59
2019-03-06T03:08:40.631Z,8.10
2019-03-06T03:09:40.647Z,9.19
2019-03-06T03:10:40.608Z,8.50
2019-03-06T03:11:40.596Z,7.40
2019-03-06T03:12:40.590Z,10.00
2019-03-06T03:13:40.579Z,8.10
2019-03-06T03:14:40.561Z,8.89
2019-03-06T03:15:40.551Z,9.00
2019-03-06T03:16:40.548Z,10.00
2019-03-06T03:17:40.528Z,8.00
2019-03-06T03:18:40.535Z,9.80
2019-03-06T03:19:40.513Z,9.50
2019-03-06T03:20:40.517Z,7.30
2019-03-06T03:21:40.483Z,9.30
2019-03-06T03:22:40.472Z,9.10
2019-03-06T03:23:40.461Z,8.50
2019-03-06T03:24:40.449Z,9.69
2019-03-06T03:25:40.468Z,10.60
2019-03-06T03:26:40.427Z,6.90
2019-03-06T03:27:40.418Z,7.40
2019-03-06T03:28:40.408Z,8.10
2019-03-06T03:29:40.402Z,7.69
2019-03-06T03:30:40.381Z,8.89
2019-03-06T03:31:40.394Z,7.40
2019-03-06T03:32:40.510Z,11.89
2019-03-06T03:33:40.348Z,9.30
2019-03-06T03:34:40.341Z,8.19
2019-03-06T03:35:40.376Z,8.80
2019-03-06T03:36:40.316Z,9.30
2019-03-06T03:37:40.302Z,7.40
2019-03-06T03:38:40.290Z,8.89
2019-03-06T03:39:40.287Z,7.30
2019-03-06T03:40:40.273Z,10.00
2019-03-06T03:41:40.256Z,7.80
2019-03-06T03:42:40.247Z,9.19
2019-03-06T03:43:40.239Z,7.40
2019-03-06T03:44:40.226Z,7.90
2019-03-06T03:45:40.221Z,8.89
2019-03-06T03:46:40.201Z,9.60
2019-03-06T03:47:40.190Z,7.90
2019-03-06T03:48:40.183Z,8.50
2019-03-06T03:49:40.170Z,8.30
2019-03-06T03:50:40.158Z,12.60
2019-03-06T03:51:40.150Z,10.10
2019-03-06T03:52:40.146Z,10.00
2019-03-06T03:53:40.125Z,8.60
2019-03-06T03:54:40.116Z,9.69
2019-03-06T03:55:40.099Z,8.39
2019-03-06T03:56:40.087Z,8.60
2019-03-06T03:57:40.081Z,7.30
2019-03-06T03:58:40.065Z,8.39
2019-03-06T03:59:40.056Z,10.69
2019-03-06T04:00:40.042Z,7.00
2019-03-06T04:01:40.030Z,9.19
2019-03-06T04:02:40.021Z,10.60
2019-03-06T04:03:40.013Z,7.69
2019-03-06T04:04:39.998Z,7.40
2019-03-06T04:05:39.987Z,8.30
2019-03-06T04:06:39.983Z,8.80
2019-03-06T04:07:39.962Z,8.80
2019-03-06T04:08:39.957Z,8.60
2019-03-06T04:09:39.940Z,7.69
2019-03-06T04:10:39.933Z,7.90
2019-03-06T04:11:39.917Z,6.69
2019-03-06T04:12:39.908Z,9.50
2019-03-06T04:13:39.900Z,10.10
2019-03-06T04:14:39.894Z,8.10
2019-03-06T04:15:39.882Z,8.10
2019-03-06T04:16:39.859Z,9.60
2019-03-06T04:17:39.848Z,8.10
2019-03-06T04:18:39.837Z,8.39
2019-03-06T04:19:39.827Z,7.59
2019-03-06T04:20:39.813Z,7.80
2019-03-06T04:21:39.805Z,8.10
2019-03-06T04:22:39.800Z,9.69
2019-03-06T04:23:39.782Z,7.80
2019-03-06T04:24:39.768Z,7.80
2019-03-06T04:25:39.765Z,9.30
2019-03-06T04:26:39.753Z,8.30
2019-03-06T04:27:39.740Z,7.40
2019-03-06T04:28:39.720Z,7.30
2019-03-06T04:29:39.710Z,7.90
2019-03-06T04:30:39.700Z,6.59
2019-03-06T04:31:39.692Z,10.19
2019-03-06T04:32:39.691Z,7.80
2019-03-06T04:33:39.664Z,8.60
2019-03-06T04:34:39.654Z,11.00
2019-03-06T04:35:39.645Z,9.00
2019-03-06T04:36:39.662Z,7.69
2019-03-06T04:37:39.622Z,8.30
2019-03-06T04:38:39.611Z,7.80
2019-03-06T04:39:39.597Z,8.10
2019-03-06T04:40:39.589Z,8.89
2019-03-06T04:41:39.574Z,7.19
2019-03-06T04:42:39.561Z,7.90
2019-03-06T04:43:39.560Z,8.19
2019-03-06T04:44:39.545Z,7.50
2019-03-06T04:45:39.528Z,6.80
2019-03-06T04:46:39.518Z,7.09
2019-03-06T04:47:39.505Z,8.00
2019-03-06T04:48:39.500Z,8.30
2019-03-06T04:49:39.482Z,7.50
2019-03-06T04:50:39.474Z,7.09
2019-03-06T04:51:39.460Z,10.10
2019-03-06T04:52:39.456Z,9.50
2019-03-06T04:53:39.437Z,7.30
2019-03-06T04:54:39.426Z,8.00
2019-03-06T04:55:39.414Z,8.60
2019-03-06T04:56:39.405Z,9.30
2019-03-06T04:57:39.393Z,8.69
2019-03-06T04:58:39.379Z,11.10
2019-03-06T04:59:39.372Z,8.89
2019-03-06T05:00:39.359Z,9.69
2019-03-06T05:01:39.348Z,8.39
2019-03-06T05:02:39.335Z,8.60
2019-03-06T05:03:39.331Z,9.19
2019-03-06T05:04:39.313Z,9.00
2019-03-06T05:05:39.303Z,7.90
2019-03-06T05:06:39.304Z,13.69
2019-03-06T05:07:39.279Z,9.30
2019-03-06T05:08:39.270Z,9.10
2019-03-06T05:09:39.273Z,9.10
2019-03-06T05:10:39.249Z,7.69
2019-03-06T05:11:39.234Z,11.10
2019-03-06T05:12:39.224Z,9.19
2019-03-06T05:13:39.213Z,8.80
2019-03-06T05:14:39.202Z,7.40
2019-03-06T05:15:39.192Z,8.30
2019-03-06T05:16:39.179Z,9.50
2019-03-06T05:17:39.169Z,8.10
2019-03-06T05:18:40.428Z,7.90
2019-03-06T05:19:39.159Z,8.80
2019-03-06T05:20:39.132Z,9.89
2019-03-06T05:21:39.127Z,8.39
2019-03-06T05:22:39.113Z,7.19
2019-03-06T05:23:39.111Z,9.39
2019-03-06T05:24:39.089Z,8.60
2019-03-06T05:25:39.132Z,11.19
2019-03-06T05:26:39.065Z,8.30
2019-03-06T05:27:39.056Z,11.19
2019-03-06T05:28:39.044Z,8.69
2019-03-06T05:29:39.042Z,8.60
2019-03-06T05:30:39.024Z,9.00
2019-03-06T05:31:39.010Z,8.60
2019-03-06T05:32:39.003Z,9.30
2019-03-06T05:33:39.038Z,8.00
2019-03-06T05:34:38.976Z,12.69
2019-03-06T05:35:38.970Z,9.19
2019-03-06T05:36:38.960Z,9.39
2019-03-06T05:37:38.944Z,10.50
2019-03-06T05:38:38.936Z,10.19
2019-03-06T05:39:38.921Z,10.30
2019-03-06T05:40:38.936Z,11.69
2019-03-06T05:41:38.904Z,10.60
2019-03-06T05:42:38.923Z,9.00
2019-03-06T05:43:38.877Z,9.60
2019-03-06T05:44:38.871Z,9.80
2019-03-06T05:45:38.854Z,10.10
2019-03-06T05:46:38.846Z,10.39
2019-03-06T05:47:38.841Z,11.19
2019-03-06T05:48:38.821Z,10.39
2019-03-06T05:49:38.814Z,10.80
2019-03-06T05:50:38.799Z,14.69
2019-03-06T05:51:38.790Z,11.60
2019-03-06T05:52:38.779Z,11.00
2019-03-06T05:53:38.766Z,9.50
2019-03-06T05:54:38.763Z,15.10
2019-03-06T05:55:38.743Z,12.00
2019-03-06T05:56:38.732Z,11.89
2019-03-06T05:57:38.728Z,10.69
2019-03-06T05:58:38.712Z,11.80
2019-03-06T05:59:38.727Z,15.69
2019-03-06T06:00:38.716Z,13.30
2019-03-06T06:01:38.726Z,11.80
2019-03-06T06:02:38.721Z,11.10
2019-03-06T06:03:38.660Z,11.19
2019-03-06T06:04:38.665Z,10.60
2019-03-06T06:05:38.668Z,10.80
2019-03-06T06:06:38.670Z,10.30
2019-03-06T06:07:38.610Z,10.89
2019-03-06T06:08:38.605Z,11.89
2019-03-06T06:09:38.588Z,13.80
2019-03-06T06:10:38.576Z,12.50
2019-03-06T06:11:38.569Z,13.19
2019-03-06T06:12:38.557Z,12.30
2019-03-06T06:13:38.553Z,11.00
2019-03-06T06:14:38.577Z,11.00
2019-03-06T06:15:38.523Z,12.50
2019-03-06T06:16:38.512Z,11.60
2019-03-06T06:17:38.499Z,12.00
2019-03-06T06:18:38.493Z,10.80
2019-03-06T06:19:38.480Z,11.00
2019-03-06T06:20:38.465Z,10.19
2019-03-06T06:21:38.458Z,10.69
2019-03-06T06:22:38.446Z,10.60
2019-03-06T06:23:38.435Z,10.19
2019-03-06T06:24:38.430Z,10.80
2019-03-06T06:25:38.410Z,11.00
2019-03-06T06:26:38.399Z,11.30
2019-03-06T06:27:38.388Z,12.60
2019-03-06T06:28:38.376Z,10.89
2019-03-06T06:29:38.374Z,13.19
2019-03-06T06:30:38.359Z,9.69
2019-03-06T06:31:38.350Z,12.19
2019-03-06T06:32:38.333Z,9.69
2019-03-06T06:33:38.320Z,11.89
2019-03-06T06:34:38.307Z,11.39
2019-03-06T06:35:38.299Z,10.80
2019-03-06T06:36:38.291Z,10.30
2019-03-06T06:37:38.276Z,7.90
2019-03-06T06:38:38.267Z,9.39
2019-03-06T06:39:38.257Z,11.89
2019-03-06T06:40:38.243Z,9.69
2019-03-06T06:41:38.266Z,9.19
2019-03-06T06:42:38.227Z,11.50
2019-03-06T06:43:38.222Z,9.60
2019-03-06T06:44:38.196Z,11.30
2019-03-06T06:45:38.185Z,10.30
2019-03-06T06:46:38.180Z,9.89
2019-03-06T06:47:38.163Z,11.30
2019-03-06T06:48:38.149Z,10.89
2019-03-06T06:49:38.141Z,10.39
2019-03-06T06:50:38.129Z,12.50
2019-03-06T06:51:38.116Z,10.69
2019-03-06T06:52:38.107Z,9.30
2019-03-06T06:53:38.095Z,10.60
2019-03-06T06:54:38.085Z,9.30
2019-03-06T06:55:38.075Z,12.69
2019-03-06T06:56:38.060Z,9.50
2019-03-06T06:57:38.049Z,9.89
2019-03-06T06:58:38.044Z,11.80
2019-03-06T06:59:38.026Z,10.30
2019-03-06T07:00:38.013Z,10.69
2019-03-06T07:01:38.007Z,8.89
2019-03-06T07:02:37.990Z,9.39
2019-03-06T07:03:37.979Z,13.89
2019-03-06T07:04:37.971Z,10.19
2019-03-06T07:05:37.961Z,10.89
2019-03-06T07:06:37.943Z,13.80
2019-03-06T07:07:37.938Z,9.30
2019-03-06T07:08:37.927Z,8.69
2019-03-06T07:09:37.912Z,18.10
2019-03-06T07:10:37.898Z,18.20
2019-03-06T07:11:37.890Z,11.50
2019-03-06T07:12:37.882Z,17.89
2019-03-06T07:13:37.870Z,9.39
2019-03-06T07:14:37.858Z,11.10
2019-03-06T07:15:37.849Z,12.10
2019-03-06T07:16:37.837Z,8.10
2019-03-06T07:17:37.828Z,10.00
2019-03-06T07:18:37.812Z,8.00
2019-03-06T07:19:37.798Z,9.10
2019-03-06T07:20:37.789Z,10.39
2019-03-06T07:21:37.777Z,11.39
2019-03-06T07:22:37.769Z,8.60
2019-03-06T07:23:37.767Z,9.60
2019-03-06T07:24:37.752Z,7.90
2019-03-06T07:25:37.730Z,8.10
2019-03-06T07:26:37.728Z,8.39
2019-03-06T07:27:37.716Z,7.30
2019-03-06T07:28:37.697Z,8.60
2019-03-06T07:29:37.689Z,8.89
2019-03-06T07:30:37.675Z,7.80
2019-03-06T07:31:37.662Z,8.39
2019-03-06T07:32:37.654Z,6.19
2019-03-06T07:33:37.642Z,6.90
2019-03-06T07:34:37.630Z,6.69
2019-03-06T07:35:37.629Z,7.50
2019-03-06T07:36:37.607Z,8.30
2019-03-06T07:37:37.596Z,7.90
2019-03-06T07:38:37.585Z,8.89
2019-03-06T07:39:37.573Z,12.30
2019-03-06T07:40:37.564Z,7.69
2019-03-06T07:41:37.551Z,7.80
2019-03-06T07:42:37.538Z,6.80
2019-03-06T07:43:37.531Z,7.00
2019-03-06T07:44:37.516Z,7.50
2019-03-06T07:45:37.513Z,7.09
2019-03-06T07:46:37.497Z,6.90
2019-03-06T07:47:37.483Z,7.09
2019-03-06T07:48:37.472Z,4.00
2019-03-06T07:49:44.660Z,8.69
2019-03-06T07:51:01.935Z,7.19
2019-03-06T07:52:01.920Z,7.80
2019-03-06T07:53:01.907Z,6.90
2019-03-06T07:54:01.898Z,6.90
2019-03-06T07:55:01.887Z,7.50
2019-03-06T07:56:01.874Z,8.89
2019-03-06T07:57:01.867Z,10.39
2019-03-06T07:58:01.851Z,9.39
2019-03-06T07:59:01.843Z,8.39
2019-03-06T08:00:01.834Z,7.40
2019-03-06T08:01:01.819Z,6.30
2019-03-06T08:02:01.807Z,6.30
2019-03-06T08:03:01.791Z,7.50
2019-03-06T08:04:01.813Z,6.00
2019-03-06T08:05:01.775Z,7.00
2019-03-06T08:06:01.760Z,10.39
2019-03-06T08:07:01.744Z,6.50
2019-03-06T08:08:01.734Z,6.19
2019-03-06T08:09:01.720Z,9.39
2019-03-06T08:10:01.709Z,7.80
2019-03-06T08:11:01.704Z,7.30
2019-03-06T08:12:01.685Z,7.59
2019-03-06T08:13:01.673Z,6.30
2019-03-06T08:14:01.668Z,4.90
2019-03-06T08:15:01.672Z,5.09
2019-03-06T08:16:01.643Z,5.19
2019-03-06T08:17:01.630Z,4.69
2019-03-06T08:18:01.617Z,6.19
2019-03-06T08:19:01.607Z,6.30
2019-03-06T08:20:01.596Z,4.90
2019-03-06T08:21:01.600Z,6.69
2019-03-06T08:22:01.579Z,5.40
2019-03-06T08:23:01.563Z,7.80
2019-03-06T08:24:01.552Z,6.30
2019-03-06T08:25:01.547Z,6.19
2019-03-06T08:26:01.534Z,5.40
2019-03-06T08:27:01.517Z,9.30
2019-03-06T08:28:01.507Z,8.89
2019-03-06T08:29:01.502Z,7.40
2019-03-06T08:30:01.482Z,9.19
2019-03-06T08:31:01.477Z,6.50
2019-03-06T08:32:01.460Z,7.90
2019-03-06T08:33:01.454Z,5.90
2019-03-06T08:34:01.437Z,5.90
2019-03-06T08:35:01.430Z,6.69
2019-03-06T08:36:01.414Z,5.59
2019-03-06T08:37:01.403Z,6.09
2019-03-06T08:38:01.391Z,7.30
2019-03-06T08:39:01.381Z,7.19
2019-03-06T08:40:01.379Z,6.80
2019-03-06T08:41:04.882Z,6.00
2019-03-06T08:42:01.351Z,5.09
2019-03-06T08:43:01.339Z,5.09
2019-03-06T08:44:01.331Z,5.69
2019-03-06T08:45:01.320Z,5.59
2019-03-06T08:46:01.302Z,4.40
2019-03-06T08:47:01.290Z,5.59
2019-03-06T08:48:01.286Z,5.80
2019-03-06T08:49:01.277Z,7.90
2019-03-06T08:50:01.263Z,5.00
2019-03-06T08:51:01.250Z,8.30
2019-03-06T08:52:01.234Z,5.30
2019-03-06T08:53:01.226Z,4.30
2019-03-06T08:54:01.213Z,6.50
2019-03-06T08:55:01.202Z,8.89
2019-03-06T08:56:01.194Z,4.80
2019-03-06T08:57:01.183Z,4.19
2019-03-06T08:58:01.168Z,5.30
2019-03-06T08:59:01.156Z,6.50
2019-03-06T09:00:01.145Z,5.90
2019-03-06T09:01:01.133Z,6.40
2019-03-06T09:02:01.335Z,5.00
2019-03-06T09:03:01.113Z,8.60
2019-03-06T09:04:01.100Z,5.69
2019-03-06T09:05:01.091Z,5.40
2019-03-06T09:06:01.077Z,6.00
2019-03-06T09:07:01.069Z,5.80
2019-03-06T09:08:01.057Z,6.19
2019-03-06T09:09:02.265Z,5.00
2019-03-06T09:10:01.040Z,7.09
2019-03-06T09:11:03.014Z,7.19
2019-03-06T09:12:01.018Z,6.50
2019-03-06T09:13:01.006Z,4.19
2019-03-06T09:14:00.993Z,9.19
2019-03-06T09:15:00.987Z,7.30
2019-03-06T09:16:00.966Z,5.00
2019-03-06T09:17:00.970Z,6.59
2019-03-06T09:18:08.907Z,4.30
2019-03-06T09:19:25.414Z,7.59
2019-03-06T09:20:34.978Z,8.60
2019-03-06T09:21:49.870Z,10.60
2019-03-06T09:22:49.857Z,10.80
2019-03-06T09:23:49.841Z,6.40
2019-03-06T09:24:49.842Z,5.90
2019-03-06T09:25:49.829Z,5.40
2019-03-06T09:26:49.816Z,5.59
2019-03-06T09:27:49.803Z,5.69
2019-03-06T09:28:49.785Z,4.69
2019-03-06T09:29:49.782Z,5.50
2019-03-06T09:30:49.765Z,11.00
2019-03-06T09:31:49.753Z,5.09
2019-03-06T09:32:49.741Z,8.00
2019-03-06T09:33:49.728Z,4.50
2019-03-06T09:34:49.724Z,4.90
2019-03-06T09:35:49.711Z,4.69
2019-03-06T09:36:49.699Z,6.00
2019-03-06T09:37:49.686Z,5.19
2019-03-06T09:38:49.679Z,7.40
2019-03-06T09:39:49.669Z,5.59
2019-03-06T09:40:49.654Z,3.50
2019-03-06T09:41:49.644Z,3.90
2019-03-06T09:42:49.630Z,4.30
2019-03-06T09:43:49.624Z,4.00
2019-03-06T09:44:49.616Z,4.59
2019-03-06T09:45:49.596Z,4.50
2019-03-06T09:46:49.590Z,3.40
2019-03-06T09:47:49.575Z,6.19
2019-03-06T09:48:49.570Z,4.19
2019-03-06T09:49:49.559Z,4.40
2019-03-06T09:50:49.541Z,8.80
2019-03-06T09:51:49.532Z,4.50
2019-03-06T09:52:49.522Z,3.79
2019-03-06T09:53:49.510Z,4.59
2019-03-06T09:54:49.502Z,7.00
2019-03-06T09:55:49.504Z,4.30
2019-03-06T09:56:49.522Z,6.50
2019-03-06T09:57:49.513Z,6.80
2019-03-06T09:58:49.456Z,4.30
2019-03-06T09:59:49.458Z,6.40
2019-03-06T10:00:49.460Z,7.00
2019-03-06T10:01:49.467Z,4.69
2019-03-06T10:02:49.406Z,4.09
2019-03-06T10:03:49.398Z,4.00
2019-03-06T10:04:49.386Z,5.19
2019-03-06T10:05:49.375Z,5.50
2019-03-06T10:06:49.366Z,4.40
2019-03-06T10:07:49.354Z,3.59
2019-03-06T10:08:49.338Z,4.30
2019-03-06T10:09:58.707Z,5.59
2019-03-06T10:11:17.172Z,7.00
2019-03-06T10:12:13.778Z,7.50
2019-03-06T10:13:13.767Z,4.00
2019-03-06T10:14:13.756Z,3.90
2019-03-06T10:15:13.744Z,4.19
2019-03-06T10:16:13.739Z,4.59
2019-03-06T10:17:13.726Z,4.09
2019-03-06T10:18:13.716Z,6.19
2019-03-06T10:19:13.702Z,4.59
2019-03-06T10:20:13.692Z,5.90
2019-03-06T10:21:13.679Z,4.30
2019-03-06T10:22:13.672Z,5.59
2019-03-06T10:23:13.655Z,4.09
2019-03-06T10:24:13.653Z,2.40
2019-03-06T10:25:13.636Z,3.59
2019-03-06T10:26:13.635Z,4.69
2019-03-06T10:27:13.614Z,5.09
2019-03-06T10:28:13.607Z,4.69
2019-03-06T10:29:13.595Z,4.80
2019-03-06T10:30:13.620Z,4.50
2019-03-06T10:31:13.575Z,5.30
2019-03-06T10:32:13.587Z,4.59
2019-03-06T10:33:13.560Z,3.59
2019-03-06T10:34:13.538Z,4.40
2019-03-06T10:35:13.529Z,2.90
2019-03-06T10:36:13.516Z,3.50
2019-03-06T10:37:13.507Z,5.59
2019-03-06T10:38:16.680Z,5.19
2019-03-06T10:39:13.485Z,4.69
2019-03-06T10:40:13.476Z,4.90
2019-03-06T10:41:13.461Z,4.80
2019-03-06T10:42:13.450Z,3.70
2019-03-06T10:43:13.441Z,10.69
2019-03-06T10:44:13.428Z,4.90
2019-03-06T10:45:13.419Z,4.40
2019-03-06T10:46:13.414Z,3.29
2019-03-06T10:47:13.398Z,4.30
2019-03-06T10:48:13.389Z,4.50
2019-03-06T10:49:13.381Z,3.50
2019-03-06T10:50:13.366Z,3.90
2019-03-06T10:51:13.362Z,3.90
2019-03-06T10:52:13.342Z,4.00
2019-03-06T10:53:13.334Z,3.59
2019-03-06T10:54:13.325Z,4.90
2019-03-06T10:55:13.309Z,7.00
2019-03-06T10:56:13.314Z,3.79
2019-03-06T10:57:13.287Z,5.50
2019-03-06T10:58:13.280Z,4.80
2019-03-06T10:59:13.270Z,5.59
2019-03-06T11:00:13.254Z,4.19
2019-03-06T11:01:13.253Z,4.80
2019-03-06T11:02:13.233Z,25.50
2019-03-06T11:03:13.365Z,6.69
2019-03-06T11:04:13.214Z,6.19
2019-03-06T11:05:13.202Z,5.80
2019-03-06T11:06:13.191Z,5.59
2019-03-06T11:07:13.179Z,4.90
2019-03-06T11:08:13.169Z,5.30
2019-03-06T11:09:13.163Z,5.40
2019-03-06T11:10:13.147Z,4.69
2019-03-06T11:11:13.143Z,5.69
2019-03-06T11:12:13.126Z,5.50
2019-03-06T11:13:13.113Z,4.80
2019-03-06T11:14:13.104Z,5.19
2019-03-06T11:15:13.159Z,5.59
2019-03-06T11:16:13.091Z,4.40
2019-03-06T11:17:13.073Z,6.69
2019-03-06T11:18:13.058Z,6.09
2019-03-06T11:19:13.058Z,4.19
2019-03-06T11:20:13.060Z,4.59
2019-03-06T11:21:13.027Z,4.69
2019-03-06T11:22:13.021Z,4.50
2019-03-06T11:23:13.008Z,3.29
2019-03-06T11:24:12.994Z,3.00
2019-03-06T11:25:12.985Z,5.40
2019-03-06T11:26:12.981Z,5.50
2019-03-06T11:27:12.966Z,4.00
2019-03-06T11:28:12.949Z,3.40
2019-03-06T11:29:12.938Z,5.59
2019-03-06T11:30:12.933Z,3.29
2019-03-06T11:31:12.923Z,3.79
2019-03-06T11:32:12.907Z,3.40
2019-03-06T11:33:12.900Z,3.00
2019-03-06T11:34:12.885Z,4.40
2019-03-06T11:35:12.872Z,4.30
2019-03-06T11:36:12.866Z,3.79
2019-03-06T11:37:12.850Z,2.79
2019-03-06T11:38:12.840Z,3.40
2019-03-06T11:39:12.826Z,3.00
2019-03-06T11:40:12.818Z,5.59
2019-03-06T11:41:12.808Z,3.29
2019-03-06T11:42:12.795Z,3.90
2019-03-06T11:43:12.786Z,2.50
2019-03-06T11:44:12.774Z,3.79
2019-03-06T11:45:12.759Z,3.20
2019-03-06T11:46:12.754Z,3.20
2019-03-06T11:47:12.737Z,3.20
2019-03-06T11:48:12.738Z,3.40
2019-03-06T11:49:12.717Z,2.79
2019-03-06T11:50:12.707Z,3.40
2019-03-06T11:51:12.695Z,3.79
2019-03-06T11:52:12.686Z,4.30
2019-03-06T11:53:12.672Z,3.20
2019-03-06T11:54:12.666Z,2.70
2019-03-06T11:55:12.650Z,2.59
2019-03-06T11:56:12.636Z,3.20
2019-03-06T11:57:12.626Z,3.20
2019-03-06T11:58:12.808Z,4.80
2019-03-06T11:59:12.608Z,3.79
2019-03-06T12:00:14.782Z,3.59
2019-03-06T12:01:12.582Z,2.90
2019-03-06T12:02:12.577Z,2.79
2019-03-06T12:03:12.566Z,3.79
2019-03-06T12:04:12.548Z,2.79
2019-03-06T12:05:12.536Z,2.59
2019-03-06T12:06:12.531Z,2.70
2019-03-06T12:07:12.517Z,3.09
2019-03-06T12:08:12.506Z,3.29
2019-03-06T12:09:12.492Z,3.79
2019-03-06T12:10:12.484Z,2.59
2019-03-06T12:11:12.469Z,3.00
2019-03-06T12:12:12.457Z,3.09
2019-03-06T12:13:12.446Z,2.29
2019-03-06T12:14:12.435Z,3.50
2019-03-06T12:15:12.427Z,2.59
2019-03-06T12:16:12.421Z,2.79
2019-03-06T12:17:12.408Z,2.50
2019-03-06T12:18:12.393Z,2.59
2019-03-06T12:19:12.380Z,2.90
2019-03-06T12:20:12.376Z,3.00
2019-03-06T12:21:12.360Z,3.20
2019-03-06T12:22:12.347Z,6.00
2019-03-06T12:23:12.337Z,3.40
2019-03-06T12:24:13.158Z,5.09
2019-03-06T12:25:12.315Z,3.00
2019-03-06T12:26:12.303Z,2.79
2019-03-06T12:27:12.292Z,3.20
2019-03-06T12:28:12.282Z,5.00
2019-03-06T12:29:12.270Z,3.00
2019-03-06T12:30:12.262Z,3.40
2019-03-06T12:31:12.251Z,3.00
2019-03-06T12:32:12.238Z,3.00
2019-03-06T12:33:12.227Z,5.69
2019-03-06T12:34:12.224Z,5.09
2019-03-06T12:35:12.204Z,2.90
2019-03-06T12:36:12.223Z,3.50
2019-03-06T12:37:12.181Z,4.09
2019-03-06T12:38:12.170Z,2.59
2019-03-06T12:39:12.165Z,3.20
2019-03-06T12:40:14.690Z,2.40
2019-03-06T12:41:12.770Z,3.20
2019-03-06T12:42:14.560Z,2.59
2019-03-06T12:43:12.115Z,2.50
2019-03-06T12:44:12.105Z,3.40
2019-03-06T12:45:12.096Z,2.50
2019-03-06T12:46:12.089Z,3.29
2019-03-06T12:47:12.074Z,3.00
2019-03-06T12:48:12.058Z,2.79
2019-03-06T12:49:12.050Z,2.29
2019-03-06T12:50:12.042Z,3.20
2019-03-06T12:51:12.025Z,5.30
2019-03-06T12:52:12.014Z,2.59
2019-03-06T12:53:12.951Z,2.79
2019-03-06T12:54:12.031Z,3.59
2019-03-06T12:55:11.982Z,3.09
2019-03-06T12:56:11.971Z,3.29
2019-03-06T12:57:11.965Z,4.90
2019-03-06T12:58:11.950Z,2.29
2019-03-06T12:59:11.946Z,2.09
2019-03-06T13:00:11.925Z,3.09
2019-03-06T13:01:11.919Z,3.20
2019-03-06T13:02:11.906Z,2.00
2019-03-06T13:03:11.890Z,2.20
2019-03-06T13:04:11.894Z,1.50
2019-03-06T13:05:11.876Z,2.00
2019-03-06T13:06:11.858Z,2.70
2019-03-06T13:07:11.852Z,5.19
2019-03-06T13:08:19.434Z,3.09
